Latest Weather Observations for Hobart Airport

IDT60801

Issued at 12:31 pm EDT Thursday 21 November 2019 (issued every 10 minutes, with the page automatically refreshed every 10 minutes)

About weather observations | Map of weather stations | Latest weather observations for TAS | Other Formats
Station Details ID: 094008 Name: HOBART AIRPORT Lat: -42.83 Lon: 147.50 Height: 4.0 m
Data from the previous 72 hours. | See also: Recent months at Hobart Airport
Date/Time
EDT
Temp
°C
App
Temp
°C
Dew
Point
°C
Rel
Hum
%
Delta-T
°C
Wind Press
QNH
hPa
Press
MSL
hPa
Rain since
9am
mm
Dir  Spd
km/h
Gust
km/h
Spd
kts
Gust
kts
21/12:00pm 36.8 27.3 -4.0 7 19.3 NW 37 61 20 33 993.3 993.3 0.0
21/11:30am 35.8 24.8 -1.8 9 18.1 NW 46 65 25 35 993.2 993.2 0.0
21/11:25am 35.9 25.9 -2.0 9 18.2 NW 41 65 22 35 993.4 993.4 0.0
21/11:07am 36.1 28.6 -1.4 9 18.2 NW 28 46 15 25 993.4 993.4 0.0
21/11:00am 36.5 29.8 -1.2 9 18.6 NW 24 35 13 19 993.5 993.5 0.0
21/10:30am 33.6 30.0 2.9 14 15.8 WNW 11 19 6 10 994.3 994.3 0.0
21/10:00am 32.3 26.5 2.5 15 15.2 WNW 22 33 12 18 994.9 994.9 0.0
21/09:30am 30.1 26.3 1.7 16 14.0 NNW 11 19 6 10 995.0 995.0 0.0
21/09:00am 26.3 22.8 1.3 19 12.0 W 9 15 5 8 995.8 995.8 0.0
21/08:30am 23.3 18.7 -1.3 19 10.9 WNW 13 15 7 8 996.2 996.2 0.0
21/08:00am 19.3 15.0 1.3 30 8.2 NW 13 17 7 9 996.6 996.6 0.0
21/07:30am 17.7 12.6 0.5 31 7.5 NW 17 20 9 11 997.0 997.0 0.0
21/07:00am 16.2 10.7 0.3 34 6.9 NW 19 20 10 11 997.5 997.4 0.0
21/06:30am 14.9 10.4 2.4 43 5.6 NW 15 19 8 10 997.9 997.8 0.0
21/06:00am 15.8 11.2 -0.8 32 7.0 NW 13 17 7 9 998.2 998.1 0.0
21/05:30am 15.2 10.7 0.0 35 6.4 NW 13 15 7 8 998.6 998.5 0.0
21/05:00am 16.6 12.0 -1.2 29 7.5 NW 13 15 7 8 999.2 999.1 0.0
21/04:30am 16.6 10.8 -1.6 29 7.5 NW 19 30 10 16 999.7 999.6 0.0
21/04:00am 16.4 10.7 -0.8 31 7.3 NW 19 26 10 14 1000.2 1000.1 0.0
21/03:30am 16.7 11.6 -2.2 27 7.7 NW 15 19 8 10 1000.9 1000.8 0.0
21/03:00am 16.2 10.2 -1.2 30 7.3 NW 20 26 11 14 1001.6 1001.5 0.0
21/02:30am 16.2 11.1 0.6 34 6.8 NNW 17 28 9 15 1002.0 1001.9 0.0
21/02:00am 17.0 11.0 -1.3 28 7.7 NNW 20 33 11 18 1002.7 1002.6 0.0
21/01:30am 17.8 10.3 -1.7 26 8.2 N 28 39 15 21 1003.2 1003.1 0.0
21/01:00am 18.5 10.6 0.8 30 7.9 N 32 44 17 24 1004.0 1003.9 0.0
21/12:30am 17.3 11.6 -0.7 29 7.7 NNW 19 30 10 16 1004.6 1004.6 0.0
21/12:00am 17.9 10.7 -2.3 25 8.4 NNW 26 35 14 19 1005.2 1005.2 0.0
 
Date/Time
EDT
Temp
°C
App
Temp
°C
Dew
Point
°C
Rel
Hum
%
Delta-T
°C
Wind Press
QNH
hPa
Press
MSL
hPa
Rain since
9am
mm
Dir  Spd
km/h
Gust
km/h
Spd
kts
Gust
kts
20/11:30pm 17.8 9.8 -2.5 25 8.4 NNW 30 46 16 25 1005.7 1005.7 0.0
20/11:18pm 17.9 10.2 -2.8 24 8.5 NNW 28 54 15 29 1006.1 1006.1 0.0
20/11:00pm 17.0 11.2 -0.2 31 7.4 NW 20 28 11 15 1006.6 1006.6 0.0
20/10:30pm 18.0 11.1 -2.6 24 8.5 NNW 24 32 13 17 1006.8 1006.8 0.0
20/10:00pm 18.1 11.7 -1.5 26 8.3 N 22 32 12 17 1007.3 1007.3 0.0
20/09:30pm 18.6 12.6 -1.7 25 8.6 N 20 30 11 16 1007.4 1007.4 0.0
20/09:00pm 18.6 13.4 -0.2 28 8.2 NNW 17 24 9 13 1007.5 1007.5 0.0
20/08:30pm 19.6 15.1 -0.1 26 8.7 NNW 13 17 7 9 1007.8 1007.8 0.0
20/08:00pm 19.6 15.5 2.0 31 8.1 N 13 17 7 9 1007.8 1007.8 0.0
20/07:30pm 20.7 16.8 1.2 27 8.9 N 11 17 6 9 1008.0 1008.0 0.0
20/07:00pm 20.9 19.8 5.1 35 7.8 CALM 0 2 0 1 1008.0 1008.0 0.0
20/06:30pm 19.4 17.2 9.4 52 5.3 SW 11 13 6 7 1007.9 1007.9 0.0
20/06:00pm 19.8 18.1 9.7 52 5.4 SSW 9 13 5 7 1007.4 1007.4 0.0
20/05:30pm 18.4 15.6 10.0 58 4.5 SSE 15 19 8 10 1007.7 1007.7 0.0
20/05:00pm 18.4 14.8 9.7 57 4.6 S 19 22 10 12 1008.5 1008.5 0.0
20/04:30pm 19.6 16.8 8.5 48 5.8 S 13 17 7 9 1009.5 1009.5 0.0
20/04:00pm 19.0 15.9 10.3 57 4.7 SSE 17 20 9 11 1010.3 1010.3 0.0
20/03:30pm 20.4 16.4 8.3 45 6.3 SSE 19 22 10 12 1010.1 1010.1 0.0
20/03:00pm 20.2 16.3 7.0 42 6.7 S 17 20 9 11 1010.0 1010.0 0.0
20/02:30pm 20.6 16.2 6.6 40 7.1 SSE 19 26 10 14 1009.9 1009.9 0.0
20/02:00pm 21.0 17.1 5.5 36 7.7 SSE 15 17 8 9 1010.1 1010.1 0.0
20/01:30pm 20.2 15.6 5.7 38 7.2 SSE 19 22 10 12 1010.6 1010.6 0.0
20/01:00pm 20.7 17.2 5.6 37 7.5 WSW 13 24 7 13 1011.3 1011.3 0.0
20/12:30pm 21.2 17.9 6.4 38 7.5 S 13 19 7 10 1012.2 1012.2 0.0
20/12:00pm 20.2 16.3 3.3 32 8.0 WNW 13 22 7 12 1012.4 1012.4 0.0
20/11:30am 19.6 16.0 5.0 38 7.1 WNW 13 24 7 13 1012.8 1012.8 0.0
20/11:00am 19.3 15.4 5.4 40 6.8 WNW 15 20 8 11 1013.0 1013.0 0.0
20/10:30am 17.5 13.2 5.3 44 5.9 NNW 17 26 9 14 1013.4 1013.4 0.0
20/10:00am 16.8 13.3 5.6 47 5.4 NW 13 20 7 11 1013.4 1013.4 0.0
20/09:30am 15.5 12.5 6.2 54 4.5 NNW 11 17 6 9 1014.0 1014.0 0.0
20/09:00am 15.9 11.5 6.5 53 4.6 NNW 19 26 10 14 1014.9 1014.9 0.0
20/08:30am 13.9 10.6 6.4 60 3.6 WNW 13 17 7 9 1015.2 1015.2 0.0
20/08:00am 12.9 9.6 6.4 64 3.1 N 13 17 7 9 1014.9 1014.9 0.0
20/07:30am 12.6 9.7 6.3 65 3.0 NNE 11 15 6 8 1015.1 1015.1 0.0
20/07:00am 11.5 8.5 6.2 70 2.5 NNE 11 15 6 8 1015.5 1015.5 0.0
20/06:30am 11.3 7.9 5.9 69 2.5 NNE 13 19 7 10 1015.2 1015.2 0.0
20/06:00am 11.2 7.8 5.8 69 2.5 NNE 13 15 7 8 1014.9 1014.9 0.0
20/05:30am 11.1 6.9 5.7 69 2.5 NE 17 22 9 12 1014.9 1014.9 0.0
20/05:00am 11.1 7.2 5.4 68 2.6 NE 15 19 8 10 1015.0 1015.0 0.0
20/04:30am 11.1 6.8 5.4 68 2.6 NE 17 22 9 12 1015.2 1015.2 0.0
20/04:00am 10.7 7.5 5.2 69 2.5 NE 11 15 6 8 1015.4 1015.4 0.0
20/03:30am 10.3 7.8 4.5 67 2.6 ESE 7 9 4 5 1015.5 1015.5 0.0
20/03:00am 10.3 7.8 4.5 67 2.6 ESE 7 11 4 6 1015.7 1015.7 0.0
20/02:30am 10.4 7.4 4.3 66 2.7 E 9 11 5 6 1015.9 1015.9 0.0
20/02:00am 10.3 8.0 4.7 68 2.5 E 6 9 3 5 1016.3 1016.3 0.0
20/01:30am 10.4 8.0 5.1 69 2.4 E 7 11 4 6 1016.4 1016.4 0.0
20/01:00am 10.6 7.7 4.8 67 2.6 ENE 9 11 5 6 1016.8 1016.8 0.0
20/12:30am 10.6 8.2 5.1 69 2.5 E 7 7 4 4 1017.1 1017.1 0.0
20/12:00am 10.4 7.9 4.9 69 2.5 ENE 7 9 4 5 1017.1 1017.1 0.0
 
Date/Time
EDT
Temp
°C
App
Temp
°C
Dew
Point
°C
Rel
Hum
%
Delta-T
°C
Wind Press
QNH
hPa
Press
MSL
hPa
Rain since
9am
mm
Dir  Spd
km/h
Gust
km/h
Spd
kts
Gust
kts
19/11:30pm 10.2 7.3 4.4 67 2.6 ENE 9 13 5 7 1017.4 1017.4 0.0
19/11:00pm 10.5 8.8 3.9 63 2.9 SE 2 6 1 3 1016.9 1016.9 0.0
19/10:30pm 10.2 7.2 4.1 66 2.7 E 9 11 5 6 1016.7 1016.7 0.0
19/10:00pm 9.4 6.4 4.2 70 2.3 E 9 13 5 7 1016.7 1016.7 0.0
19/09:30pm 10.3 6.9 4.2 66 2.7 ESE 11 15 6 8 1016.3 1016.3 0.0
19/09:00pm 11.3 7.4 3.6 59 3.4 SE 13 17 7 9 1016.1 1016.1 0.0
19/08:30pm 11.5 6.6 3.9 59 3.4 SSE 19 26 10 14 1015.4 1015.4 0.0
19/08:00pm 12.3 6.5 4.4 58 3.6 SSE 24 32 13 17 1015.2 1015.2 0.0
19/07:30pm 12.5 6.9 5.4 62 3.3 SSE 24 32 13 17 1014.6 1014.6 0.0
19/07:00pm 12.8 6.5 5.5 61 3.4 SE 28 37 15 20 1014.2 1014.2 0.0
19/06:30pm 13.3 6.7 5.9 61 3.5 SSE 30 35 16 19 1013.9 1013.9 0.0
19/06:00pm 14.1 7.4 5.7 57 4.0 SSE 30 35 16 19 1013.6 1013.6 0.0
19/05:30pm 13.9 8.4 5.7 57 3.9 SE 24 33 13 18 1013.4 1013.4 0.0
19/05:00pm 13.6 8.4 5.5 58 3.8 SSE 22 30 12 16 1012.8 1012.8 0.0
19/04:30pm 14.5 8.7 6.4 58 3.9 SSE 26 37 14 20 1012.3 1012.3 0.0
19/04:00pm 13.8 6.8 6.0 59 3.7 SSE 32 43 17 23 1012.2 1012.2 0.0
19/03:30pm 15.2 8.2 5.8 53 4.5 SSE 32 39 17 21 1011.9 1011.9 0.0
19/03:00pm 15.5 9.3 6.0 53 4.6 SSE 28 37 15 20 1011.5 1011.5 0.0
19/02:30pm 15.2 8.4 6.8 57 4.1 SSE 32 41 17 22 1011.5 1011.5 0.0
19/02:00pm 13.8 6.9 6.5 61 3.5 SSE 32 43 17 23 1011.1 1011.1 0.0
19/01:54pm 14.4 8.9 7.5 63 3.4 SSE 26 43 14 23 1011.0 1011.0 0.0
19/01:30pm 16.6 12.5 0.1 32 7.1 WSW 11 22 6 12 1011.0 1011.0 0.0
19/01:00pm 16.6 11.0 -0.2 32 7.2 WSW 19 28 10 15 1010.8 1010.8 0.0
19/12:30pm 16.1 11.8 1.0 36 6.6 WSW 13 22 7 12 1010.7 1010.7 0.0
19/12:00pm 16.1 11.2 1.7 38 6.4 SSW 17 26 9 14 1010.7 1010.7 0.0
19/11:30am 16.2 11.3 1.8 38 6.4 SW 17 26 9 14 1010.6 1010.6 0.0
19/11:00am 16.2 12.0 1.5 37 6.5 SW 13 17 7 9 1010.5 1010.5 0.0
19/10:30am 14.9 10.5 0.4 37 6.2 WSW 13 26 7 14 1010.5 1010.5 0.0
19/10:00am 14.5 9.0 0.4 38 6.0 SW 19 28 10 15 1010.4 1010.4 0.0
19/09:30am 14.7 10.7 0.7 38 6.0 W 11 17 6 9 1010.2 1010.2 0.0
19/09:00am 13.8 10.2 2.8 47 4.9 W 11 17 6 9 1010.3 1010.3 0.0
19/08:30am 13.2 9.9 2.5 48 4.7 SW 9 15 5 8 1010.0 1010.0 0.0
19/08:00am 11.9 9.5 4.1 59 3.5 S 6 9 3 5 1009.7 1009.7 0.0
19/07:30am 12.2 7.1 2.9 53 4.1 WNW 19 24 10 13 1009.2 1009.2 0.0
19/07:00am 12.3 7.6 3.0 53 4.1 WNW 17 26 9 14 1008.8 1008.8 0.0
19/06:30am 10.5 6.7 3.7 63 3.0 NW 13 15 7 8 1008.5 1008.5 0.0
19/06:00am 9.2 5.4 3.7 68 2.4 NW 13 19 7 10 1008.2 1008.2 0.0
19/05:30am 10.5 6.8 4.2 65 2.8 NW 13 20 7 11 1007.7 1007.7 0.0
19/05:00am 10.2 7.2 4.1 66 2.7 NW 9 11 5 6 1007.3 1007.3 0.0
19/04:30am 10.2 6.6 2.8 60 3.2 W 11 13 6 7 1007.0 1007.0 0.0
19/04:00am 10.8 7.0 3.8 62 3.1 NNW 13 19 7 10 1006.7 1006.7 0.0
19/03:30am 11.3 7.0 3.4 58 3.5 NW 15 19 8 10 1006.6 1006.6 0.0
19/03:00am 11.0 7.6 4.1 62 3.1 NW 11 13 6 7 1006.3 1006.3 0.0
19/02:30am 11.8 7.9 3.2 55 3.8 W 13 20 7 11 1006.1 1006.1 0.0
19/02:00am 12.4 7.3 2.9 52 4.2 WNW 19 26 10 14 1005.7 1005.7 0.0
19/01:30am 11.8 8.0 3.8 58 3.6 WNW 13 19 7 10 1005.8 1005.8 0.0
19/01:00am 12.6 9.1 3.7 54 4.0 NW 11 15 6 8 1005.6 1005.6 0.0
19/12:30am 13.0 8.8 3.7 53 4.2 W 15 19 8 10 1005.7 1005.7 0.0
19/12:00am 13.9 8.3 3.3 49 4.8 NW 22 32 12 17 1005.7 1005.7 0.0
 
Date/Time
EDT
Temp
°C
App
Temp
°C
Dew
Point
°C
Rel
Hum
%
Delta-T
°C
Wind Press
QNH
hPa
Press
MSL
hPa
Rain since
9am
mm
Dir  Spd
km/h
Gust
km/h
Spd
kts
Gust
kts
18/11:30pm 13.0 10.5 4.8 57 3.8 NE 7 9 4 5 1005.4 1005.4 0.0
18/11:00pm 14.1 10.8 4.4 52 4.5 NNE 11 19 6 10 1005.1 1005.1 0.0
18/10:30pm 13.8 10.6 5.3 56 4.0 SE 11 17 6 9 1004.7 1004.7 0.0
18/10:00pm 15.2 8.2 4.3 48 5.1 W 30 41 16 22 1003.6 1003.5 0.0
18/09:43pm 15.4 7.5 4.5 48 5.1 W 35 54 19 29 1002.8 1002.7 0.0
18/09:30pm 15.4 7.2 4.8 49 5.0 WNW 37 52 20 28 1002.6 1002.5 0.0
18/09:00pm 15.5 7.7 5.0 49 5.0 WNW 35 48 19 26 1003.1 1003.0 0.0
18/08:45pm 15.6 8.2 5.1 49 5.0 WNW 33 52 18 28 1003.4 1003.3 0.0
18/08:30pm 15.6 7.9 5.4 50 4.9 WNW 35 50 19 27 1003.4 1003.3 0.0
18/08:00pm 16.0 9.6 5.4 49 5.1 W 28 43 15 23 1003.4 1003.3 0.0
18/07:30pm 16.8 10.8 5.2 46 5.6 W 26 35 14 19 1003.3 1003.2 0.0
18/07:00pm 17.1 10.6 4.8 44 5.9 W 28 37 15 20 1003.0 1002.9 0.0
18/06:30pm 17.2 10.0 4.9 44 5.9 WSW 32 43 17 23 1002.5 1002.4 0.0
18/06:00pm 17.7 10.4 4.5 41 6.3 WNW 32 48 17 26 1002.4 1002.3 0.0
18/05:30pm 18.3 10.0 4.3 39 6.7 W 37 54 20 29 1002.0 1001.9 0.0
18/05:00pm 18.3 10.8 3.7 38 6.9 W 32 50 17 27 1002.1 1002.0 0.0
18/04:34pm 18.2 10.2 3.8 38 6.8 W 35 57 19 31 1002.3 1002.2 0.0
18/04:30pm 18.4 10.1 4.1 38 6.8 W 37 52 20 28 1002.2 1002.1 0.0
18/04:00pm 18.2 9.4 3.5 37 6.9 W 39 61 21 33 1001.9 1001.8 0.0
18/03:36pm 18.1 8.6 3.7 38 6.8 W 43 65 23 35 1001.9 1001.8 0.0
18/03:30pm 18.2 9.4 3.8 38 6.8 W 39 56 21 30 1001.9 1001.8 0.0
18/03:19pm 18.1 8.6 3.7 38 6.8 WNW 43 61 23 33 1001.8 1001.7 0.0
18/03:00pm 18.9 9.4 4.0 37 7.1 W 43 54 23 29 1002.0 1001.9 0.0
18/02:30pm 18.4 8.2 3.2 36 7.1 W 46 65 25 35 1001.9 1001.8 0.0
18/02:00pm 19.3 8.1 3.8 36 7.4 W 52 70 28 38 1002.0 1001.9 0.0
18/01:44pm 19.0 7.4 3.9 36 7.2 W 54 72 29 39 1001.9 1001.8 0.0
18/01:30pm 19.3 7.1 3.8 36 7.4 WNW 57 74 31 40 1001.9 1001.8 0.0
18/01:00pm 19.8 5.7 3.7 34 7.7 W 67 91 36 49 1001.3 1001.2 0.0
18/12:58pm 19.0 5.3 3.6 36 7.3 W 65 91 35 49 1001.3 1001.2 0.0

Other formats

Comma delimited format used in spreadsheet applications
http://www.bom.gov.au/fwo/IDT60801/IDT60801.94975.axf

JavaScript Object Notation format (JSON) in row-major order
http://www.bom.gov.au/fwo/IDT60801/IDT60801.94975.json

Data quality

Most of these data are generated automatically and are frequently updated. Quality checks on data are not normally performed. It is possible for incorrect values to appear. Refer to information at About Latest Weather Observations and please check the disclaimer before using these data.